Pagrindinis puslapis
METAR-TAF:

METAR-TAF

Oro uostai :

Velingtonas, Naujoji Zelandija

platuma: 41-20S, ilguma: 174-48E, Aukštis: 12 m

Dabartinis oras

Ataskaita buvo paskelbta 47 minutes, ne 09:30 UTC
Vėjas 10 kt iš Pietų
Temperatūra 16°C
Drėgmė 72%
Slėgis 1021 hPa
Matomumas 10 km arba daugiau

METAR: NZWN 290930Z AUTO 19010KT 9999 NCD 16/11 Q1021 NOSIG

Laikas: 23:17 (10:17 UTC)

Prognozė

Ataskaita buvo paskelbta 46 minutes, ne 09:31 UTC
Prognozė galioja nuo 29 metu 06 UTC su 01 metu 06 UTC
Vėjas 10 kt iš Pietų
Matomumas 10 km arba daugiau
Išsisklaidę debesys ne aukštis 2500 ft
Tapsmas
nuo 29 metu 11 UTC su 29 metu 13 UTC
Vėjas 5 kt iš Šiaurės/Šiaurės Rytų
Tapsmas
nuo 29 metu 22 UTC su 01 metu 00 UTC
Vėjas 10 kt iš Pietų/Pietvakarių

TAF: NZWN 290931Z 2906/0106 17010KT 9999 SCT025 BECMG 2911/2913 02005KT BECMG 2922/0100 20010KT

Orai ataskaitas ir orų prognozės (METAR, TAF).

turimą stotys yra geltonos ir raudonos taškus žemėlapyje.

Perkelti pele per norėdami pamatyti stoties vardą.

Tada spustelėkite, norėdami matyti oro stebėjimo ir prognozės.

Norėdami pakeisti žemėlapį: spustelėkite ant žalios mygtukų su juodo kryžiaus žemyn,; žalią mygtuką su brūkšneliu, jei norite nutolinti; arba žalių rodyklių gretimoms žemėlapius.


METAR-TAF: